St George Airport
PAPB : rendu visible

Aérodrome :











RETROUVEZ-NOUS SUR...

 
LOGIN :

S'inscrire | Disclaimer

   EN    FR    IT 

 









Légende :    VFR   VFR Marginal   IFR   IFR Intensif   IFR Très Intensif
Visi : 
Plafond : 
>= 8 km
>= 3000ft
5 à 8 km
1000 à 3000 ft
1500m à 5 km
500 à 1000 ft
800 à 1500m
200 à 500 ft
< 800m
< 200 ft
Symboles :   Orages  Brouillard  Fortes neiges  Fortes précipitations  Vent > 20 kt






- Altitude de l'aérodrome : 125 ft
- Code IATA : PBV


PAPB - St George

DERNIER METAR :
  • 130230Z AUTO 05008KT 10SM OVC005 09/07 A2983 RMK AO2 T00890067 TSNO

METARs EXPIRÉS :
  • 130153Z AUTO VRB06KT 10SM OVC005 09/07 A2983 RMK AO2 SLP089 T00940072 TSNO
  • 130053Z AUTO 03009KT 10SM OVC006 09/07 A2983 RMK AO2 SLP090 T00890067 TSNO
  • 122353Z AUTO 02011KT 10SM BKN005 10/07 A2983 RMK AO2 SLP087 T01000072 10111 20072 51004 TSNO

TAF N/A
FIR PAZA / Amérique du Nord



MET'MAP, la Météo Aéronautique d'un coup d'oeil ! - Copyright ORBIFLY Décembre 2007 - Disclaimer

ORBIFLY MET'MAP TEAM :

Programmation & Développement : Alexandra Zaïnal
Sur une idée originale de : Baudouin d'Aumeries
Assistance à la programmation : Marc-Olivier Méhu
Soutien technique & logistique : Manuel Goepfert

Contact : metmap@orbifly.com




SOURCES & CREDITS :

   NOAA       Earth
Advisory